Bataipora, Brazil
Current Conditions -  °F | °C
As of 11:00 PM on Sunday 21 Dec 2014 (Local Time) from SBMG Reporting Station
Thunderstorm Thunderstorm  
Wind Chill: 77°   Ceiling: Unl
Heat Index: 78°   Visibility: 6mi
Dew Point: 72°   Wind: 13mph
Humidity: 83%   Direction: 340°NNW
Pressure: NA   Gusts: NA
Location:  22.3°S, 53.27°W
Report Text: SBMG 220200Z 34011KT 9999 VCTS FEW022 SCT035 FEW065CB 25/22 Q1009
Loading
Personal Weather Stations






























Interactive Weather Map New forecast layout! Learn more

10-Day Weather Forecast

Advertisements
Track Severe Weather on mobile